Latest Coastal Weather Observations for Mardie

IDW60701

Issued at 1:52 pm WST Tuesday 28 June 2016 (issued every 10 minutes, with the page automatically refreshed every 10 minutes)

About coastal observations | Map of coastal stations | Coastal observations for WA | Marine services | Other Formats
Station Details ID: 005008 Name: MARDIE Lat: -21.19 Lon: 115.98 Height: 11.0 m
Data from the previous 72 hours. | See also: Recent months at Mardie
Date/Time
WST
Temp
°C
Wind Pressure Rain since
9am
mm
Weather Cloud Vis
km
Sea
Height
m
Swell
Dir  Spd
kts
Gust
kts
hPa Trend Height
m
Period
s
Dir
28/01:30pm 26.9 E 4 9 1014.8 - 0.0 - - - - - - -
28/01:00pm 26.7 ENE 5 9 1015.2 - 0.0 - - - - - - -
28/12:30pm 26.1 ENE 2 5 1016.0 - 0.0 - - - - - - -
28/12:00pm 25.8 NNE 6 9 1016.4 - 0.0 - - - - - - -
28/11:30am 25.3 NE 7 10 1016.6 - 0.0 - - - - - - -
28/11:00am 24.9 ENE 8 10 1017.1 - 0.0 - - - - - - -
28/10:30am 23.5 E 9 11 1017.2 - 0.0 - - - - - - -
28/10:00am 22.3 E 10 13 1017.4 - 0.0 - - - - - - -
28/09:30am 21.0 ESE 10 12 1017.5 - 0.0 - - - - - - -
28/09:00am 19.8 ESE 9 12 1017.5 - 0.0 - - - - - - -
28/08:30am 18.1 ESE 6 9 1017.5 - 0.0 - - - - - - -
28/08:00am 16.0 ESE 5 7 1017.2 - 0.0 - - - - - - -
28/07:30am 14.2 ESE 5 6 1016.9 - 0.0 - - - - - - -
28/07:00am 13.6 ESE 2 2 1016.8 - 0.0 - - - - - - -
28/06:30am 13.6 ESE 4 5 1016.4 - 0.0 - - - - - - -
28/06:00am 14.1 ESE 8 10 1015.8 - 0.0 - - - - - - -
28/05:30am 14.3 ESE 6 8 1015.6 - 0.0 - - - - - - -
28/05:00am 12.8 ESE 5 6 1015.5 - 0.0 - - - - - - -
28/04:30am 12.9 ESE 1 3 1015.8 - 0.0 - - - - - - -
28/04:00am 13.5 ESE 4 5 1015.9 - 0.0 - - - - - - -
28/03:30am 13.6 SE 3 4 1015.9 - 0.0 - - - - - - -
28/03:00am 13.7 SE 6 7 1015.7 - 0.0 - - - - - - -
28/02:30am 13.9 SE 7 9 1015.8 - 0.0 - - - - - - -
28/02:00am 13.7 SE 8 9 1016.2 - 0.0 - - - - - - -
28/01:30am 12.9 SSE 5 5 1016.5 - 0.0 - - - - - - -
28/01:00am 13.3 SSE 2 3 1016.7 - 0.0 - - - - - - -
28/12:30am 13.4 SSE 4 5 1016.6 - 0.0 - - - - - - -
28/12:00am 13.3 S 4 5 1016.7 - 0.0 - - - - - - -
 
Date/Time
WST
Temp
°C
Wind Pressure Rain since
9am
mm
Weather Cloud Vis
km
Sea
Height
m
Swell
Dir  Spd
kts
Gust
kts
hPa Trend Height
m
Period
s
Dir
27/11:30pm 13.7 S 4 4 1016.9 - 0.0 - - - - - - -
27/11:00pm 14.2 S 3 5 1017.0 - 0.0 - - - - - - -
27/10:30pm 14.7 CALM 0 0 1017.2 - 0.0 - - - - - - -
27/10:00pm 14.9 SSW 2 3 1017.1 - 0.0 - - - - - - -
27/09:30pm 15.1 SSW 3 4 1017.0 - 0.0 - - - - - - -
27/09:00pm 15.6 SSW 5 5 1017.0 - 0.0 - - - - - - -
27/08:30pm 16.0 NNW 5 5 1016.9 - 0.0 - - - - - - -
27/08:00pm 16.5 CALM 0 0 1016.7 - 0.0 - - - - - - -
27/07:30pm 16.7 CALM 0 0 1016.6 - 0.0 - - - - - - -
27/07:00pm 17.6 CALM 0 0 1016.4 - 0.0 - - - - - - -
27/06:30pm 18.2 NNW 2 3 1016.0 - 0.0 - - - - - - -
27/06:00pm 19.0 N 4 6 1015.4 - 0.0 - - - - - - -
27/05:30pm 20.2 NNE 8 12 1015.3 - 0.0 - - - - - - -
27/05:00pm 20.9 NNE 9 13 1015.2 - 0.0 - - - - - - -
27/04:30pm 21.5 NNE 9 13 1015.0 - 0.0 - - - - - - -
27/04:00pm 21.8 N 9 13 1014.8 - 0.0 - - - - - - -
27/03:30pm 23.1 ENE 5 8 1014.8 - 0.0 - - - - - - -
27/03:00pm 22.9 SE 3 7 1014.8 - 0.0 - - - - - - -
27/02:30pm 23.2 ENE 5 9 1014.7 - 0.0 - - - - - - -
27/02:00pm 22.8 E 7 12 1014.9 - 0.0 - - - - - - -
27/01:30pm 22.5 ENE 6 10 1015.2 - 0.0 - - - - - - -
27/01:00pm 22.3 ENE 9 13 1015.9 - 0.0 - - - - - - -
27/12:30pm 21.9 ENE 9 17 1016.6 - 0.0 - - - - - - -
27/12:00pm 21.5 E 9 13 1016.9 - 0.0 - - - - - - -
27/11:30am 20.3 E 11 17 1017.3 - 0.0 - - - - - - -
27/11:00am 20.0 E 13 19 1017.8 - 0.0 - - - - - - -
27/10:30am 19.9 E 13 19 1018.3 - 0.0 - - - - - - -
27/10:00am 18.9 E 16 20 1018.3 - 0.0 - - - - - - -
27/09:30am 18.5 E 15 19 1018.3 - 0.0 - - - - - - -
27/09:00am 17.7 E 15 23 1018.4 - 0.0 - - - - - - -
27/08:30am 16.4 ESE 9 13 1018.4 - 0.0 - - - - - - -
27/08:00am 15.0 ESE 8 10 1018.5 - 0.0 - - - - - - -
27/07:30am 13.8 ESE 7 9 1018.4 - 0.0 - - - - - - -
27/07:00am 13.0 ESE 8 9 1018.2 - 0.0 - - - - - - -
27/06:30am 13.4 ESE 8 11 1018.0 - 0.0 - - - - - - -
27/06:00am 14.0 ESE 10 13 1017.8 - 0.0 - - - - - - -
27/05:30am 14.2 ESE 10 12 1017.7 - 0.0 - - - - - - -
27/05:00am 14.5 ESE 9 11 1017.6 - 0.0 - - - - - - -
27/04:30am 14.5 ESE 8 10 1017.5 - 0.0 - - - - - - -
27/04:00am 14.2 ESE 9 10 1017.4 - 0.0 - - - - - - -
27/03:30am 13.3 ESE 6 8 1017.3 - 0.0 - - - - - - -
27/03:00am 13.9 ESE 7 8 1017.2 - 0.0 - - - - - - -
27/02:30am 14.3 ESE 7 8 1017.4 - 0.0 - - - - - - -
27/02:00am 14.3 E 6 7 1017.5 - 0.0 - - - - - - -
27/01:30am 14.7 E 7 8 1017.5 - 0.0 - - - - - - -
27/01:00am 14.6 ESE 7 7 1017.7 - 0.0 - - - - - - -
27/12:30am 14.2 ESE 5 6 1017.8 - 0.0 - - - - - - -
27/12:00am 14.4 ESE 4 5 1017.9 - 0.0 - - - - - - -
 
Date/Time
WST
Temp
°C
Wind Pressure Rain since
9am
mm
Weather Cloud Vis
km
Sea
Height
m
Swell
Dir  Spd
kts
Gust
kts
hPa Trend Height
m
Period
s
Dir
26/11:30pm 14.5 ESE 5 5 1017.9 - 0.0 - - - - - - -
26/11:00pm 14.7 SE 5 5 1017.9 - 0.0 - - - - - - -
26/10:30pm 16.1 NE 5 6 1018.0 - 0.0 - - - - - - -
26/10:00pm 16.4 E 4 5 1018.1 - 0.0 - - - - - - -
26/09:30pm 17.1 E 5 6 1017.9 - 0.0 - - - - - - -
26/09:00pm 17.8 E 5 6 1017.7 - 0.0 - - - - - - -
26/08:30pm 18.3 E 5 6 1017.6 - 0.0 - - - - - - -
26/08:00pm 19.2 E 7 8 1017.1 - 0.0 - - - - - - -
26/07:30pm 19.7 E 5 7 1017.1 - 0.0 - - - - - - -
26/07:00pm 19.8 E 4 6 1016.9 - 0.0 - - - - - - -
26/06:30pm 20.6 SSE 4 5 1016.7 - 0.0 - - - - - - -
26/06:00pm 21.7 SE 4 6 1016.5 - 0.0 - - - - - - -
26/05:30pm 23.7 SE 6 9 1016.4 - 0.0 - - - - - - -
26/05:00pm 24.6 SE 6 12 1016.3 - 0.0 - - - - - - -
26/04:30pm 24.9 SE 7 10 1016.2 - 0.0 - - - - - - -
26/04:00pm 24.8 ESE 8 14 1016.3 - 0.0 - - - - - - -
26/03:30pm 24.7 ESE 8 12 1016.3 - 0.0 - - - - - - -
26/03:00pm 24.9 ESE 8 13 1016.4 - 0.0 - - - - - - -
26/02:30pm 24.6 ESE 7 12 1016.3 - 0.0 - - - - - - -
26/02:00pm 24.4 ESE 8 13 1016.6 - 0.0 - - - - - - -
26/01:30pm 23.9 ESE 10 14 1016.8 - 0.0 - - - - - - -
26/01:00pm 23.2 ESE 9 15 1017.2 - 0.0 - - - - - - -
26/12:30pm 22.9 ESE 8 13 1017.6 - 0.0 - - - - - - -
26/12:00pm 23.4 E 11 17 1017.9 - 0.0 - - - - - - -
26/11:30am 22.3 E 13 19 1018.6 - 0.0 - - - - - - -
26/11:00am 21.8 E 14 18 1018.6 - 0.0 - - - - - - -
26/10:30am 21.6 E 14 19 1018.9 - 0.0 - - - - - - -
26/10:00am 21.2 E 16 21 1019.1 - 0.0 - - - - - - -
26/09:30am 20.7 E 16 23 1019.1 - 0.0 - - - - - - -
26/09:00am 20.1 E 15 19 1019.1 - 0.0 - - - - - - -
26/08:30am 18.4 ESE 6 10 1019.0 - 0.0 - - - - - - -
26/08:00am 16.0 S 1 2 1018.8 - 0.0 - - - - - - -
26/07:30am 14.2 S 1 3 1018.3 - 0.0 - - - - - - -
26/07:00am 12.8 CALM 0 0 1018.0 - 0.0 - - - - - - -
26/06:30am 12.7 CALM 0 0 1017.6 - 0.0 - - - - - - -
26/06:00am 13.1 CALM 0 0 1017.1 - 0.0 - - - - - - -
26/05:30am 13.3 CALM 0 0 1017.0 - 0.0 - - - - - - -
26/05:00am 13.4 CALM 0 0 1016.9 - 0.0 - - - - - - -
26/04:30am 13.9 S 2 3 1016.7 - 0.0 - - - - - - -
26/04:00am 14.2 S 3 3 1016.6 - 0.0 - - - - - - -
26/03:30am 14.6 S 5 5 1016.7 - 0.0 - - - - - - -
26/03:00am 14.8 S 5 6 1016.8 - 0.0 - - - - - - -
26/02:30am 15.1 S 5 7 1016.7 - 0.0 - - - - - - -
26/02:00am 15.4 SSW 6 8 1016.9 - 0.0 - - - - - - -
26/01:30am 15.6 SSW 7 8 1017.0 - 0.0 - - - - - - -
26/01:00am 15.7 S 5 6 1017.0 - 0.0 - - - - - - -
26/12:30am 16.2 S 5 6 1016.9 - 0.0 - - - - - - -
26/12:00am 16.6 S 7 8 1016.8 - 0.0 - - - - - - -
 
Date/Time
WST
Temp
°C
Wind Pressure Rain since
9am
mm
Weather Cloud Vis
km
Sea
Height
m
Swell
Dir  Spd
kts
Gust
kts
hPa Trend Height
m
Period
s
Dir
25/11:30pm 16.8 S 6 8 1017.0 - 0.0 - - - - - - -
25/11:00pm 16.9 SSW 5 6 1017.2 - 0.0 - - - - - - -
25/10:30pm 17.4 SSW 6 8 1017.0 - 0.0 - - - - - - -
25/10:00pm 17.6 S 5 6 1016.7 - 0.0 - - - - - - -
25/09:30pm 18.1 SSW 6 7 1016.5 - 0.0 - - - - - - -
25/09:00pm 18.5 SSW 6 7 1016.3 - 0.0 - - - - - - -
25/08:30pm 19.2 SW 8 9 1016.2 - 0.0 - - - - - - -
25/08:00pm 19.3 SSW 6 7 1016.0 - 0.0 - - - - - - -
25/07:30pm 20.0 SSW 6 8 1015.8 - 0.0 - - - - - - -
25/07:00pm 20.6 SSW 6 7 1015.4 - 0.0 - - - - - - -
25/06:30pm 21.3 SSW 5 7 1014.9 - 0.0 - - - - - - -
25/06:00pm 22.5 SSW 7 9 1014.5 - 0.0 - - - - - - -
25/05:30pm 23.7 SSW 10 14 1014.2 - 0.0 - - - - - - -
25/05:00pm 24.6 SSW 11 15 1013.8 - 0.0 - - - - - - -
25/04:30pm 24.9 SSW 13 19 1013.7 - 0.0 - - - - - - -
25/04:00pm 25.0 SSW 11 16 1013.3 - 0.0 - - - - - - -
25/03:30pm 24.8 SSW 11 17 1013.3 - 0.0 - - - - - - -
25/03:00pm 24.5 SSW 11 15 1013.4 - 0.0 - - - - - - -
25/02:30pm 24.4 SSW 13 19 1013.4 - 0.0 - - - - - - -
25/02:00pm 23.9 SSW 11 17 1013.8 - 0.0 - - - - - - -

Other Formats:

Comma delimited format used in spreadsheet applications
http://www.bom.gov.au/fwo/IDW60701/IDW60701.94306.axf

JavaScript Object Notation format (JSON) in row-major order
http://www.bom.gov.au/fwo/IDW60701/IDW60701.94306.json